createdAt,value
2023-03-27T00:04:19.931Z,99.90
2023-03-27T00:09:23.120Z,99.90
2023-03-27T00:14:26.713Z,99.90
2023-03-27T00:19:30.400Z,99.90
2023-03-27T00:24:34.791Z,99.90
2023-03-27T00:29:38.438Z,99.90
2023-03-27T00:34:42.387Z,99.90
2023-03-27T00:39:50.417Z,99.90
2023-03-27T00:44:54.661Z,99.90
2023-03-27T00:49:58.962Z,99.90
2023-03-27T00:55:07.985Z,99.90
2023-03-27T01:00:14.209Z,99.90
2023-03-27T01:05:20.421Z,99.90
2023-03-27T01:10:36.220Z,99.90
2023-03-27T01:15:50.706Z,99.90
2023-03-27T01:21:09.066Z,99.90
2023-03-27T01:26:43.936Z,99.90
2023-03-27T01:32:14.032Z,99.90
2023-03-27T01:37:35.629Z,99.90
2023-03-27T01:42:42.038Z,99.90
2023-03-27T01:47:53.898Z,99.90
2023-03-27T01:53:07.993Z,99.90
2023-03-27T01:58:23.978Z,99.90
2023-03-27T02:03:40.528Z,99.90
2023-03-27T02:09:05.559Z,99.90
2023-03-27T02:14:16.280Z,99.90
2023-03-27T02:19:27.013Z,99.90
2023-03-27T02:24:31.179Z,99.90
2023-03-27T02:30:07.210Z,99.90
2023-03-27T02:35:29.849Z,99.90
2023-03-27T02:40:51.832Z,99.90
2023-03-27T02:46:03.737Z,99.90
2023-03-27T02:51:28.544Z,99.90
2023-03-27T02:56:38.955Z,99.90
2023-03-27T03:01:45.784Z,99.90
2023-03-27T03:06:50.889Z,99.90
2023-03-27T03:11:55.820Z,99.90
2023-03-27T03:16:59.179Z,99.90
2023-03-27T03:22:02.883Z,99.90
2023-03-27T03:27:06.305Z,99.90
2023-03-27T03:32:09.701Z,99.90
2023-03-27T03:37:13.654Z,99.90
2023-03-27T03:42:22.433Z,99.90
2023-03-27T03:47:26.822Z,99.90
2023-03-27T03:52:30.213Z,99.90
2023-03-27T03:57:33.671Z,99.90
2023-03-27T04:02:37.940Z,99.90
2023-03-27T04:07:41.560Z,99.90
2023-03-27T04:12:51.702Z,99.90
2023-03-27T04:17:55.020Z,99.90
2023-03-27T04:23:02.866Z,99.90
2023-03-27T04:28:06.450Z,99.90
2023-03-27T04:33:11.607Z,99.90
2023-03-27T04:38:15.243Z,99.90
2023-03-27T04:43:19.454Z,99.90
2023-03-27T04:48:22.796Z,99.90
2023-03-27T04:53:31.473Z,99.90
2023-03-27T04:58:36.695Z,99.90
2023-03-27T05:03:40.847Z,99.90
2023-03-27T05:08:44.084Z,99.90
2023-03-27T05:13:47.252Z,99.90
2023-03-27T05:18:50.550Z,99.90
2023-03-27T05:23:55.130Z,99.90
2023-03-27T05:28:59.724Z,99.90
2023-03-27T05:34:03.300Z,99.90
2023-03-27T05:39:06.679Z,99.90
2023-03-27T05:44:10.220Z,99.90
2023-03-27T05:49:13.467Z,99.90
2023-03-27T05:54:16.954Z,99.90
2023-03-27T05:59:20.592Z,99.90
2023-03-27T06:04:23.742Z,99.90
2023-03-27T06:09:27.320Z,99.90
2023-03-27T06:14:30.860Z,99.90
2023-03-27T06:19:34.067Z,99.90
2023-03-27T06:24:37.310Z,99.90
2023-03-27T06:29:40.927Z,99.90
2023-03-27T06:34:53.812Z,99.90
2023-03-27T06:39:58.019Z,99.90
2023-03-27T06:45:01.314Z,99.90
2023-03-27T06:50:04.879Z,99.90
2023-03-27T06:55:09.094Z,99.90
2023-03-27T07:00:20.455Z,99.90
2023-03-27T07:05:25.912Z,99.90
2023-03-27T07:10:29.537Z,99.90
2023-03-27T07:15:32.813Z,99.90
2023-03-27T07:20:37.445Z,99.90
2023-03-27T07:25:41.037Z,99.90
2023-03-27T07:30:44.640Z,99.90
2023-03-27T07:35:49.084Z,99.90
2023-03-27T07:40:52.553Z,99.90
2023-03-27T07:45:56.340Z,99.90
2023-03-27T07:51:10.644Z,99.90
2023-03-27T07:56:16.515Z,99.90
2023-03-27T08:01:19.938Z,99.90
2023-03-27T08:06:23.228Z,99.90
2023-03-27T08:11:30.806Z,99.90
2023-03-27T08:16:34.473Z,99.90
2023-03-27T08:21:37.948Z,99.90
2023-03-27T08:26:41.119Z,99.90
2023-03-27T08:31:44.686Z,99.90
2023-03-27T08:36:47.926Z,99.90
2023-03-27T08:41:56.960Z,99.90
2023-03-27T08:47:41.302Z,99.90
2023-03-27T08:52:45.851Z,99.90
2023-03-27T08:57:50.721Z,99.90
2023-03-27T09:03:12.485Z,99.90
2023-03-27T09:09:04.332Z,99.90
2023-03-27T09:14:32.824Z,99.90
2023-03-27T09:19:50.390Z,99.90
2023-03-27T09:24:56.798Z,99.90
2023-03-27T09:30:15.636Z,99.90
2023-03-27T09:35:21.502Z,99.00
2023-03-27T09:40:43.295Z,99.60
2023-03-27T09:45:51.612Z,97.30
2023-03-27T09:50:55.340Z,98.10
2023-03-27T09:56:14.769Z,99.40
2023-03-27T10:01:38.864Z,98.60
2023-03-27T10:06:49.327Z,97.90
2023-03-27T10:12:06.584Z,96.90
2023-03-27T10:17:24.892Z,94.90
2023-03-27T10:22:36.342Z,96.80
2023-03-27T10:27:44.394Z,98.80
2023-03-27T10:32:48.510Z,99.80
2023-03-27T10:37:52.113Z,98.50
2023-03-27T10:43:11.571Z,96.50
2023-03-27T10:48:42.999Z,96.90
2023-03-27T10:53:55.892Z,96.00
2023-03-27T10:59:28.193Z,97.10
2023-03-27T11:05:05.129Z,99.70
2023-03-27T11:10:18.694Z,97.20
2023-03-27T11:15:43.817Z,96.00
2023-03-27T11:21:06.966Z,98.20
2023-03-27T11:26:16.250Z,99.90
2023-03-27T11:31:46.762Z,99.90
2023-03-27T11:37:06.144Z,99.90
2023-03-27T11:42:41.983Z,99.90
2023-03-27T11:48:11.101Z,99.90
2023-03-27T11:53:49.962Z,99.90
2023-03-27T11:59:11.364Z,99.90
2023-03-27T12:04:33.570Z,99.90
2023-03-27T12:10:00.830Z,96.40
2023-03-27T12:15:42.967Z,93.50
2023-03-27T12:21:14.109Z,94.90
2023-03-27T12:26:47.750Z,95.60
2023-03-27T12:32:08.402Z,93.80
2023-03-27T12:54:42.856Z,92.10
2023-03-27T12:59:49.717Z,99.90
2023-03-27T13:05:33.476Z,99.90
2023-03-27T13:11:04.170Z,99.90
2023-03-27T13:16:07.314Z,99.90
2023-03-27T13:21:36.740Z,99.90
2023-03-27T13:26:55.409Z,99.90
2023-03-27T13:32:02.021Z,99.90
2023-03-27T13:37:08.182Z,99.90
2023-03-27T13:42:21.824Z,99.90
2023-03-27T13:47:34.064Z,99.90
2023-03-27T13:53:01.654Z,99.90
2023-03-27T13:58:11.241Z,99.90
2023-03-27T14:03:26.435Z,99.90
2023-03-27T14:08:35.103Z,99.90
2023-03-27T14:14:12.358Z,99.00
2023-03-27T14:19:47.564Z,96.70
2023-03-27T14:25:08.639Z,96.10
2023-03-27T14:30:29.344Z,99.90
2023-03-27T14:35:42.870Z,99.90
2023-03-27T14:40:53.421Z,99.90
2023-03-27T14:46:01.716Z,99.90
2023-03-27T14:51:14.996Z,99.90
2023-03-27T14:56:29.318Z,99.90
2023-03-27T15:01:35.975Z,99.90
2023-03-27T15:06:40.241Z,99.90
2023-03-27T15:11:48.846Z,97.30
2023-03-27T15:17:03.307Z,92.90
2023-03-27T15:22:14.546Z,90.70
2023-03-27T15:27:32.642Z,83.90
2023-03-27T15:32:51.203Z,72.90
2023-03-27T15:37:57.577Z,77.20
2023-03-27T15:43:20.255Z,71.70
2023-03-27T15:48:36.355Z,72.20
2023-03-27T15:53:47.074Z,68.10
2023-03-27T15:59:03.663Z,67.60
2023-03-27T16:04:20.244Z,65.10
2023-03-27T16:09:30.782Z,65.00
2023-03-27T16:14:54.562Z,64.70
2023-03-27T16:20:07.812Z,64.60
2023-03-27T16:25:13.376Z,61.30
2023-03-27T16:30:28.367Z,62.10
2023-03-27T16:35:35.064Z,64.30
2023-03-27T16:40:38.964Z,64.60
2023-03-27T16:45:43.686Z,66.70
2023-03-27T16:50:47.242Z,70.00
2023-03-27T16:55:56.746Z,72.00
2023-03-27T17:01:01.445Z,75.70
2023-03-27T17:06:12.819Z,74.80
2023-03-27T17:11:17.651Z,77.20
2023-03-27T17:16:22.474Z,77.50
2023-03-27T17:21:27.813Z,78.90
2023-03-27T17:26:35.131Z,81.20
2023-03-27T17:31:41.667Z,81.50
2023-03-27T17:36:54.034Z,84.10
2023-03-27T17:41:59.090Z,84.00
2023-03-27T17:47:08.198Z,84.90
2023-03-27T17:52:13.861Z,86.70
2023-03-27T17:57:17.667Z,88.50
2023-03-27T18:02:24.288Z,88.80
2023-03-27T18:07:29.455Z,89.10
2023-03-27T18:12:35.206Z,90.30
2023-03-27T18:17:39.818Z,91.10
2023-03-27T18:22:44.735Z,91.80
2023-03-27T18:27:50.165Z,92.30
2023-03-27T18:32:58.823Z,92.90
2023-03-27T18:38:05.371Z,94.60
2023-03-27T18:43:13.673Z,94.50
2023-03-27T18:48:19.646Z,95.70
2023-03-27T18:53:25.690Z,96.70
2023-03-27T18:58:30.816Z,98.00
2023-03-27T19:03:38.241Z,99.30
2023-03-27T19:08:45.487Z,99.60
2023-03-27T19:13:52.606Z,99.90
2023-03-27T19:18:57.838Z,99.90
2023-03-27T19:24:03.083Z,99.90
2023-03-27T19:29:07.734Z,99.90
2023-03-27T19:34:13.810Z,99.90
2023-03-27T19:39:18.779Z,99.90
2023-03-27T19:44:25.989Z,99.90
2023-03-27T19:49:33.592Z,99.90
2023-03-27T19:54:40.977Z,99.90
2023-03-27T19:59:48.404Z,99.90
2023-03-27T20:04:56.379Z,99.90
2023-03-27T20:10:16.374Z,99.90
2023-03-27T20:15:25.959Z,99.90
2023-03-27T20:20:32.646Z,99.90
2023-03-27T20:25:40.601Z,99.90
2023-03-27T20:30:45.535Z,99.90
2023-03-27T20:35:54.467Z,99.90
2023-03-27T20:41:04.236Z,99.90
2023-03-27T20:46:11.663Z,99.90
2023-03-27T20:51:18.122Z,99.90
2023-03-27T20:56:22.728Z,99.90
2023-03-27T21:01:28.063Z,99.90
2023-03-27T21:06:31.640Z,99.90
2023-03-27T21:11:36.020Z,99.90
2023-03-27T21:17:01.761Z,99.90
2023-03-27T21:22:05.172Z,99.90
2023-03-27T21:27:08.667Z,99.90
2023-03-27T21:32:12.141Z,99.90
2023-03-27T21:37:15.390Z,99.90
2023-03-27T21:42:22.257Z,99.90
2023-03-27T21:47:34.334Z,99.90
2023-03-27T21:52:40.931Z,99.90
2023-03-27T21:57:44.318Z,99.90
2023-03-27T22:02:47.811Z,99.90
2023-03-27T22:07:51.521Z,99.90
2023-03-27T22:12:54.732Z,99.90
2023-03-27T22:17:58.147Z,99.90
2023-03-27T22:23:01.505Z,99.90
2023-03-27T22:28:04.766Z,99.90
2023-03-27T22:33:08.177Z,99.90
2023-03-27T22:38:11.703Z,99.90
2023-03-27T22:43:22.651Z,99.90
2023-03-27T22:48:26.682Z,99.90
2023-03-27T22:53:33.925Z,99.90
2023-03-27T22:58:37.559Z,99.90
2023-03-27T23:03:41.180Z,99.90
2023-03-27T23:08:44.647Z,99.90
2023-03-27T23:13:48.233Z,99.90
2023-03-27T23:18:51.699Z,99.90
2023-03-27T23:23:55.219Z,99.90
2023-03-27T23:28:59.225Z,99.90
2023-03-27T23:34:02.619Z,99.90
2023-03-27T23:39:05.819Z,99.90
2023-03-27T23:44:09.205Z,99.90
2023-03-27T23:49:13.732Z,99.90
2023-03-27T23:54:17.574Z,99.90
2023-03-27T23:59:21.240Z,99.90
